sensor_id;sensor_type;location;lat;lon;timestamp;temperature;humidity
68943;DHT22;60852;52.190;4.422;2022-09-28T00:01:23;9.96;83.90
68943;DHT22;60852;52.190;4.422;2022-09-28T00:03:51;10.00;84.15
68943;DHT22;60852;52.190;4.422;2022-09-28T00:06:21;10.03;83.23
68943;DHT22;60852;52.190;4.422;2022-09-28T00:08:47;9.76;84.64
68943;DHT22;60852;52.190;4.422;2022-09-28T00:11:15;9.46;86.00
68943;DHT22;60852;52.190;4.422;2022-09-28T00:13:42;9.21;87.20
68943;DHT22;60852;52.190;4.422;2022-09-28T00:16:14;9.25;88.04
68943;DHT22;60852;52.190;4.422;2022-09-28T00:18:41;9.36;88.17
68943;DHT22;60852;52.190;4.422;2022-09-28T00:21:10;9.49;88.49
68943;DHT22;60852;52.190;4.422;2022-09-28T00:23:37;9.63;88.31
68943;DHT22;60852;52.190;4.422;2022-09-28T00:26:22;9.78;87.96
68943;DHT22;60852;52.190;4.422;2022-09-28T00:28:52;9.61;86.80
68943;DHT22;60852;52.190;4.422;2022-09-28T00:31:18;9.53;87.05
68943;DHT22;60852;52.190;4.422;2022-09-28T00:33:43;9.56;86.79
68943;DHT22;60852;52.190;4.422;2022-09-28T00:36:09;9.59;86.86
68943;DHT22;60852;52.190;4.422;2022-09-28T00:38:35;9.63;86.96
68943;DHT22;60852;52.190;4.422;2022-09-28T00:41:00;9.69;87.06
68943;DHT22;60852;52.190;4.422;2022-09-28T00:43:26;9.83;87.32
68943;DHT22;60852;52.190;4.422;2022-09-28T00:45:58;9.90;87.51
68943;DHT22;60852;52.190;4.422;2022-09-28T00:48:28;9.96;87.44
68943;DHT22;60852;52.190;4.422;2022-09-28T00:50:58;10.02;86.97
68943;DHT22;60852;52.190;4.422;2022-09-28T00:53:30;10.07;86.99
68943;DHT22;60852;52.190;4.422;2022-09-28T00:56:05;10.14;86.76
68943;DHT22;60852;52.190;4.422;2022-09-28T00:58:44;10.16;86.63
68943;DHT22;60852;52.190;4.422;2022-09-28T01:01:11;10.21;86.71
68943;DHT22;60852;52.190;4.422;2022-09-28T01:03:37;10.25;86.33
68943;DHT22;60852;52.190;4.422;2022-09-28T01:06:26;10.31;86.28
68943;DHT22;60852;52.190;4.422;2022-09-28T01:08:59;10.50;86.88
68943;DHT22;60852;52.190;4.422;2022-09-28T01:11:29;10.64;87.06
68943;DHT22;60852;52.190;4.422;2022-09-28T01:13:56;10.69;86.85
68943;DHT22;60852;52.190;4.422;2022-09-28T01:16:37;10.72;86.39
68943;DHT22;60852;52.190;4.422;2022-09-28T01:22:37;10.85;86.05
68943;DHT22;60852;52.190;4.422;2022-09-28T01:27:46;10.57;82.14
68943;DHT22;60852;52.190;4.422;2022-09-28T01:30:18;10.40;81.89
68943;DHT22;60852;52.190;4.422;2022-09-28T01:33:04;10.40;83.77
68943;DHT22;60852;52.190;4.422;2022-09-28T01:35:39;10.41;84.90
68943;DHT22;60852;52.190;4.422;2022-09-28T01:41:28;10.48;85.74
68943;DHT22;60852;52.190;4.422;2022-09-28T01:43:55;10.52;85.79
68943;DHT22;60852;52.190;4.422;2022-09-28T01:46:28;10.60;85.85
68943;DHT22;60852;52.190;4.422;2022-09-28T01:48:57;10.61;85.36
68943;DHT22;60852;52.190;4.422;2022-09-28T01:51:53;10.60;85.06
68943;DHT22;60852;52.190;4.422;2022-09-28T01:57:25;10.64;84.33
68943;DHT22;60852;52.190;4.422;2022-09-28T02:00:07;10.55;84.77
68943;DHT22;60852;52.190;4.422;2022-09-28T02:03:05;10.44;83.69
68943;DHT22;60852;52.190;4.422;2022-09-28T02:05:34;10.52;84.31
68943;DHT22;60852;52.190;4.422;2022-09-28T02:08:12;10.57;83.60
68943;DHT22;60852;52.190;4.422;2022-09-28T02:10:50;10.57;83.18
68943;DHT22;60852;52.190;4.422;2022-09-28T02:13:27;10.57;83.33
68943;DHT22;60852;52.190;4.422;2022-09-28T02:18:40;10.64;83.80
68943;DHT22;60852;52.190;4.422;2022-09-28T02:24:40;10.72;83.85
68943;DHT22;60852;52.190;4.422;2022-09-28T02:30:03;10.79;83.83
68943;DHT22;60852;52.190;4.422;2022-09-28T02:32:32;10.83;84.06
68943;DHT22;60852;52.190;4.422;2022-09-28T02:34:59;10.83;83.74
68943;DHT22;60852;52.190;4.422;2022-09-28T02:37:26;10.72;83.37
68943;DHT22;60852;52.190;4.422;2022-09-28T02:39:51;10.75;83.89
68943;DHT22;60852;52.190;4.422;2022-09-28T02:42:21;10.76;83.87
68943;DHT22;60852;52.190;4.422;2022-09-28T02:45:05;10.79;83.83
68943;DHT22;60852;52.190;4.422;2022-09-28T02:47:46;10.82;84.06
68943;DHT22;60852;52.190;4.422;2022-09-28T02:53:27;10.91;83.96
68943;DHT22;60852;52.190;4.422;2022-09-28T02:59:36;10.91;83.78
68943;DHT22;60852;52.190;4.422;2022-09-28T03:05:19;10.85;84.24
68943;DHT22;60852;52.190;4.422;2022-09-28T03:08:01;10.75;83.39
68943;DHT22;60852;52.190;4.422;2022-09-28T03:11:08;10.65;83.84
68943;DHT22;60852;52.190;4.422;2022-09-28T03:13:34;10.67;84.20
68943;DHT22;60852;52.190;4.422;2022-09-28T03:16:14;10.71;83.85
68943;DHT22;60852;52.190;4.422;2022-09-28T03:18:40;10.79;84.08
68943;DHT22;60852;52.190;4.422;2022-09-28T03:21:06;10.85;84.10
68943;DHT22;60852;52.190;4.422;2022-09-28T03:23:32;10.83;84.18
68943;DHT22;60852;52.190;4.422;2022-09-28T03:25:57;10.85;84.01
68943;DHT22;60852;52.190;4.422;2022-09-28T03:28:23;10.86;83.88
68943;DHT22;60852;52.190;4.422;2022-09-28T03:30:50;10.91;83.78
68943;DHT22;60852;52.190;4.422;2022-09-28T03:33:15;10.89;83.81
68943;DHT22;60852;52.190;4.422;2022-09-28T03:35:43;10.88;83.71
68943;DHT22;60852;52.190;4.422;2022-09-28T03:38:10;10.81;83.73
68943;DHT22;60852;52.190;4.422;2022-09-28T03:40:35;10.79;83.77
68943;DHT22;60852;52.190;4.422;2022-09-28T03:43:01;10.75;84.00
68943;DHT22;60852;52.190;4.422;2022-09-28T03:45:26;10.75;83.99
68943;DHT22;60852;52.190;4.422;2022-09-28T03:47:51;10.76;84.04
68943;DHT22;60852;52.190;4.422;2022-09-28T03:50:17;10.75;84.11
68943;DHT22;60852;52.190;4.422;2022-09-28T03:52:42;10.72;84.09
68943;DHT22;60852;52.190;4.422;2022-09-28T03:55:08;10.71;83.75
68943;DHT22;60852;52.190;4.422;2022-09-28T03:57:35;10.62;84.32
68943;DHT22;60852;52.190;4.422;2022-09-28T04:00:02;10.67;84.56
68943;DHT22;60852;52.190;4.422;2022-09-28T04:02:28;10.71;84.61
68943;DHT22;60852;52.190;4.422;2022-09-28T04:04:54;10.75;84.66
68943;DHT22;60852;52.190;4.422;2022-09-28T04:07:20;10.76;84.63
68943;DHT22;60852;52.190;4.422;2022-09-28T04:09:46;10.67;83.87
68943;DHT22;60852;52.190;4.422;2022-09-28T04:12:11;10.57;84.53
68943;DHT22;60852;52.190;4.422;2022-09-28T04:14:37;10.57;84.62
68943;DHT22;60852;52.190;4.422;2022-09-28T04:17:02;10.55;84.69
68943;DHT22;60852;52.190;4.422;2022-09-28T04:19:28;10.52;84.58
68943;DHT22;60852;52.190;4.422;2022-09-28T04:21:54;10.55;84.80
68943;DHT22;60852;52.190;4.422;2022-09-28T04:24:19;10.61;85.06
68943;DHT22;60852;52.190;4.422;2022-09-28T04:26:45;10.65;84.38
68943;DHT22;60852;52.190;4.422;2022-09-28T04:29:11;10.60;83.82
68943;DHT22;60852;52.190;4.422;2022-09-28T04:31:48;10.60;84.44
68943;DHT22;60852;52.190;4.422;2022-09-28T04:34:17;10.65;84.37
68943;DHT22;60852;52.190;4.422;2022-09-28T04:36:43;10.64;84.70
68943;DHT22;60852;52.190;4.422;2022-09-28T04:39:10;10.58;84.50
68943;DHT22;60852;52.190;4.422;2022-09-28T04:41:35;10.64;84.71
68943;DHT22;60852;52.190;4.422;2022-09-28T04:44:01;10.62;84.79
68943;DHT22;60852;52.190;4.422;2022-09-28T04:46:27;10.57;84.89
68943;DHT22;60852;52.190;4.422;2022-09-28T04:48:52;10.57;84.97
68943;DHT22;60852;52.190;4.422;2022-09-28T04:51:17;10.54;84.94
68943;DHT22;60852;52.190;4.422;2022-09-28T04:53:43;10.54;84.97
68943;DHT22;60852;52.190;4.422;2022-09-28T04:56:13;10.52;84.90
68943;DHT22;60852;52.190;4.422;2022-09-28T04:58:40;10.50;85.05
68943;DHT22;60852;52.190;4.422;2022-09-28T05:01:16;10.54;85.16
68943;DHT22;60852;52.190;4.422;2022-09-28T05:03:42;10.60;85.29
68943;DHT22;60852;52.190;4.422;2022-09-28T05:06:12;10.71;85.32
68943;DHT22;60852;52.190;4.422;2022-09-28T05:08:39;10.82;85.27
68943;DHT22;60852;52.190;4.422;2022-09-28T05:11:06;10.85;85.06
68943;DHT22;60852;52.190;4.422;2022-09-28T05:13:37;10.89;85.04
68943;DHT22;60852;52.190;4.422;2022-09-28T05:16:06;10.88;84.87
68943;DHT22;60852;52.190;4.422;2022-09-28T05:18:31;10.91;84.80
68943;DHT22;60852;52.190;4.422;2022-09-28T05:20:57;10.85;84.71
68943;DHT22;60852;52.190;4.422;2022-09-28T05:23:22;10.83;84.64
68943;DHT22;60852;52.190;4.422;2022-09-28T05:25:48;10.82;85.04
68943;DHT22;60852;52.190;4.422;2022-09-28T05:28:13;10.86;84.80
68943;DHT22;60852;52.190;4.422;2022-09-28T05:30:39;10.85;84.85
68943;DHT22;60852;52.190;4.422;2022-09-28T05:33:04;10.76;84.23
68943;DHT22;60852;52.190;4.422;2022-09-28T05:35:30;10.72;84.28
68943;DHT22;60852;52.190;4.422;2022-09-28T05:37:56;10.71;84.67
68943;DHT22;60852;52.190;4.422;2022-09-28T05:40:22;10.73;84.91
68943;DHT22;60852;52.190;4.422;2022-09-28T05:42:47;10.76;84.85
68943;DHT22;60852;52.190;4.422;2022-09-28T05:45:13;10.73;84.91
68943;DHT22;60852;52.190;4.422;2022-09-28T05:47:41;10.79;84.80
68943;DHT22;60852;52.190;4.422;2022-09-28T05:50:08;10.79;84.83
68943;DHT22;60852;52.190;4.422;2022-09-28T05:52:36;10.81;84.76
68943;DHT22;60852;52.190;4.422;2022-09-28T05:55:02;10.79;84.81
68943;DHT22;60852;52.190;4.422;2022-09-28T05:57:29;10.86;84.70
68943;DHT22;60852;52.190;4.422;2022-09-28T05:59:54;10.89;84.70
68943;DHT22;60852;52.190;4.422;2022-09-28T06:02:21;10.96;84.35
68943;DHT22;60852;52.190;4.422;2022-09-28T06:04:46;10.99;84.33
68943;DHT22;60852;52.190;4.422;2022-09-28T06:07:14;11.08;84.84
68943;DHT22;60852;52.190;4.422;2022-09-28T06:09:39;11.19;84.84
68943;DHT22;60852;52.190;4.422;2022-09-28T06:12:05;11.29;84.34
68943;DHT22;60852;52.190;4.422;2022-09-28T06:14:30;11.16;83.81
68943;DHT22;60852;52.190;4.422;2022-09-28T06:16:56;11.12;84.38
68943;DHT22;60852;52.190;4.422;2022-09-28T06:19:21;11.08;84.37
68943;DHT22;60852;52.190;4.422;2022-09-28T06:21:46;11.06;84.54
68943;DHT22;60852;52.190;4.422;2022-09-28T06:24:12;11.03;84.61
68943;DHT22;60852;52.190;4.422;2022-09-28T06:26:37;11.02;84.88
68943;DHT22;60852;52.190;4.422;2022-09-28T06:29:03;11.05;85.15
68943;DHT22;60852;52.190;4.422;2022-09-28T06:31:28;11.15;85.27
68943;DHT22;60852;52.190;4.422;2022-09-28T06:33:54;11.22;84.85
68943;DHT22;60852;52.190;4.422;2022-09-28T06:36:19;11.24;84.84
68943;DHT22;60852;52.190;4.422;2022-09-28T06:38:45;11.33;84.97
68943;DHT22;60852;52.190;4.422;2022-09-28T06:41:11;11.27;84.76
68943;DHT22;60852;52.190;4.422;2022-09-28T06:43:36;11.19;85.12
68943;DHT22;60852;52.190;4.422;2022-09-28T06:46:05;11.18;85.18
68943;DHT22;60852;52.190;4.422;2022-09-28T06:48:31;11.13;85.06
68943;DHT22;60852;52.190;4.422;2022-09-28T06:51:00;11.06;85.43
68943;DHT22;60852;52.190;4.422;2022-09-28T06:53:27;11.03;85.21
68943;DHT22;60852;52.190;4.422;2022-09-28T06:55:54;11.09;85.57
68943;DHT22;60852;52.190;4.422;2022-09-28T06:58:21;11.15;85.63
68943;DHT22;60852;52.190;4.422;2022-09-28T07:00:49;11.20;85.65
68943;DHT22;60852;52.190;4.422;2022-09-28T07:03:20;11.20;85.59
68943;DHT22;60852;52.190;4.422;2022-09-28T07:05:48;11.29;85.80
68943;DHT22;60852;52.190;4.422;2022-09-28T07:08:15;11.36;85.67
68943;DHT22;60852;52.190;4.422;2022-09-28T07:10:43;11.43;85.34
68943;DHT22;60852;52.190;4.422;2022-09-28T07:13:10;11.47;85.35
68943;DHT22;60852;52.190;4.422;2022-09-28T07:15:35;11.49;85.18
68943;DHT22;60852;52.190;4.422;2022-09-28T07:18:04;11.46;85.38
68943;DHT22;60852;52.190;4.422;2022-09-28T07:20:32;11.51;85.18
68943;DHT22;60852;52.190;4.422;2022-09-28T07:23:00;11.60;85.18
68943;DHT22;60852;52.190;4.422;2022-09-28T07:25:27;11.74;85.19
68943;DHT22;60852;52.190;4.422;2022-09-28T07:28:01;11.87;84.75
68943;DHT22;60852;52.190;4.422;2022-09-28T07:30:29;11.84;84.31
68943;DHT22;60852;52.190;4.422;2022-09-28T07:32:58;11.85;84.15
68943;DHT22;60852;52.190;4.422;2022-09-28T07:35:24;11.91;84.76
68943;DHT22;60852;52.190;4.422;2022-09-28T07:37:59;11.98;84.73
68943;DHT22;60852;52.190;4.422;2022-09-28T07:40:27;12.09;84.64
68943;DHT22;60852;52.190;4.422;2022-09-28T07:43:11;12.24;84.77
68943;DHT22;60852;52.190;4.422;2022-09-28T07:45:38;12.39;84.59
68943;DHT22;60852;52.190;4.422;2022-09-28T07:48:04;12.49;84.60
68943;DHT22;60852;52.190;4.422;2022-09-28T07:50:30;12.64;84.51
68943;DHT22;60852;52.190;4.422;2022-09-28T07:52:56;12.80;84.56
68943;DHT22;60852;52.190;4.422;2022-09-28T07:55:23;12.97;84.62
68943;DHT22;60852;52.190;4.422;2022-09-28T07:57:58;13.08;84.11
68943;DHT22;60852;52.190;4.422;2022-09-28T08:00:28;13.15;83.74
68943;DHT22;60852;52.190;4.422;2022-09-28T08:02:58;13.00;82.10
68943;DHT22;60852;52.190;4.422;2022-09-28T08:05:25;12.88;81.65
68943;DHT22;60852;52.190;4.422;2022-09-28T08:07:51;12.90;82.18
68943;DHT22;60852;52.190;4.422;2022-09-28T08:10:17;13.04;82.51
68943;DHT22;60852;52.190;4.422;2022-09-28T08:12:43;13.22;81.81
68943;DHT22;60852;52.190;4.422;2022-09-28T08:15:10;13.19;81.17
68943;DHT22;60852;52.190;4.422;2022-09-28T08:17:36;13.32;81.65
68943;DHT22;60852;52.190;4.422;2022-09-28T08:20:02;13.55;82.29
68943;DHT22;60852;52.190;4.422;2022-09-28T08:22:46;13.55;81.33
68943;DHT22;60852;52.190;4.422;2022-09-28T08:25:11;13.39;81.88
68943;DHT22;60852;52.190;4.422;2022-09-28T08:27:37;13.04;81.14
68943;DHT22;60852;52.190;4.422;2022-09-28T08:30:03;12.88;81.74
68943;DHT22;60852;52.190;4.422;2022-09-28T08:32:28;12.84;82.33
68943;DHT22;60852;52.190;4.422;2022-09-28T08:34:54;12.81;82.13
68943;DHT22;60852;52.190;4.422;2022-09-28T08:37:20;12.75;82.34
68943;DHT22;60852;52.190;4.422;2022-09-28T08:39:46;12.72;82.43
68943;DHT22;60852;52.190;4.422;2022-09-28T08:42:32;12.63;82.54
68943;DHT22;60852;52.190;4.422;2022-09-28T08:45:15;12.61;82.74
68943;DHT22;60852;52.190;4.422;2022-09-28T08:51:09;12.56;82.99
68943;DHT22;60852;52.190;4.422;2022-09-28T08:53:56;12.60;82.88
68943;DHT22;60852;52.190;4.422;2022-09-28T08:56:38;12.66;82.89
68943;DHT22;60852;52.190;4.422;2022-09-28T08:59:11;12.66;83.17
68943;DHT22;60852;52.190;4.422;2022-09-28T09:01:46;12.79;83.36
68943;DHT22;60852;52.190;4.422;2022-09-28T09:04:13;12.91;83.28
68943;DHT22;60852;52.190;4.422;2022-09-28T09:09:39;13.17;83.03
68943;DHT22;60852;52.190;4.422;2022-09-28T09:12:19;13.25;82.55
68943;DHT22;60852;52.190;4.422;2022-09-28T09:15:12;13.29;81.40
68943;DHT22;60852;52.190;4.422;2022-09-28T09:21:08;13.47;81.83
68943;DHT22;60852;52.190;4.422;2022-09-28T09:23:34;13.52;80.30
68943;DHT22;60852;52.190;4.422;2022-09-28T09:26:17;13.56;79.16
68943;DHT22;60852;52.190;4.422;2022-09-28T09:34:40;13.80;77.64
68943;DHT22;60852;52.190;4.422;2022-09-28T09:37:28;13.99;77.07
68943;DHT22;60852;52.190;4.422;2022-09-28T09:46:02;14.28;74.97
68943;DHT22;60852;52.190;4.422;2022-09-28T09:48:35;14.37;71.93
68943;DHT22;60852;52.190;4.422;2022-09-28T09:57:05;14.81;70.50
68943;DHT22;60852;52.190;4.422;2022-09-28T09:59:38;14.84;70.06
68943;DHT22;60852;52.190;4.422;2022-09-28T10:02:21;14.95;70.19
68943;DHT22;60852;52.190;4.422;2022-09-28T10:04:51;15.02;70.94
68943;DHT22;60852;52.190;4.422;2022-09-28T10:10:12;15.03;70.56
68943;DHT22;60852;52.190;4.422;2022-09-28T10:12:40;15.18;71.49
68943;DHT22;60852;52.190;4.422;2022-09-28T10:15:07;15.36;70.83
68943;DHT22;60852;52.190;4.422;2022-09-28T10:17:34;15.37;70.95
68943;DHT22;60852;52.190;4.422;2022-09-28T10:20:02;15.30;69.60
68943;DHT22;60852;52.190;4.422;2022-09-28T10:22:30;15.27;69.28
68943;DHT22;60852;52.190;4.422;2022-09-28T10:24:55;15.22;69.52
68943;DHT22;60852;52.190;4.422;2022-09-28T10:27:29;15.09;71.17
68943;DHT22;60852;52.190;4.422;2022-09-28T10:30:21;14.76;71.88
68943;DHT22;60852;52.190;4.422;2022-09-28T10:32:53;14.37;70.87
68943;DHT22;60852;52.190;4.422;2022-09-28T10:35:30;14.05;72.15
68943;DHT22;60852;52.190;4.422;2022-09-28T10:38:22;13.86;73.40
68943;DHT22;60852;52.190;4.422;2022-09-28T10:40:49;13.75;74.11
68943;DHT22;60852;52.190;4.422;2022-09-28T10:43:35;13.68;75.64
68943;DHT22;60852;52.190;4.422;2022-09-28T10:46:08;13.63;75.71
68943;DHT22;60852;52.190;4.422;2022-09-28T10:51:15;13.52;76.76
68943;DHT22;60852;52.190;4.422;2022-09-28T10:53:41;13.56;77.24
68943;DHT22;60852;52.190;4.422;2022-09-28T10:56:22;13.59;77.31
68943;DHT22;60852;52.190;4.422;2022-09-28T10:58:51;13.65;77.58
68943;DHT22;60852;52.190;4.422;2022-09-28T11:01:21;13.63;77.19
68943;DHT22;60852;52.190;4.422;2022-09-28T11:03:59;13.76;77.45
68943;DHT22;60852;52.190;4.422;2022-09-28T11:06:34;13.95;77.32
68943;DHT22;60852;52.190;4.422;2022-09-28T11:09:04;14.18;77.91
68943;DHT22;60852;52.190;4.422;2022-09-28T11:11:39;14.45;77.25
68943;DHT22;60852;52.190;4.422;2022-09-28T11:19:41;14.99;72.96
68943;DHT22;60852;52.190;4.422;2022-09-28T11:24:46;15.07;69.86
68943;DHT22;60852;52.190;4.422;2022-09-28T11:27:25;15.06;70.64
68943;DHT22;60852;52.190;4.422;2022-09-28T11:29:55;15.05;70.11
68943;DHT22;60852;52.190;4.422;2022-09-28T11:32:31;15.07;71.00
68943;DHT22;60852;52.190;4.422;2022-09-28T11:35:04;15.07;69.90
68943;DHT22;60852;52.190;4.422;2022-09-28T11:37:51;15.06;71.02
68943;DHT22;60852;52.190;4.422;2022-09-28T11:51:42;14.92;71.88
68943;DHT22;60852;52.190;4.422;2022-09-28T11:54:31;14.95;70.36
68943;DHT22;60852;52.190;4.422;2022-09-28T11:57:03;15.03;71.55
68943;DHT22;60852;52.190;4.422;2022-09-28T11:59:39;15.13;69.27
68943;DHT22;60852;52.190;4.422;2022-09-28T12:02:24;15.16;69.93
68943;DHT22;60852;52.190;4.422;2022-09-28T12:07:46;15.20;69.82
68943;DHT22;60852;52.190;4.422;2022-09-28T12:10:22;15.22;68.20
68943;DHT22;60852;52.190;4.422;2022-09-28T12:13:01;15.27;69.38
68943;DHT22;60852;52.190;4.422;2022-09-28T12:15:50;15.40;69.33
68943;DHT22;60852;52.190;4.422;2022-09-28T12:18:25;15.58;70.09
68943;DHT22;60852;52.190;4.422;2022-09-28T12:23:33;15.67;67.75
68943;DHT22;60852;52.190;4.422;2022-09-28T12:26:33;15.71;68.71
68943;DHT22;60852;52.190;4.422;2022-09-28T12:29:10;15.67;67.23
68943;DHT22;60852;52.190;4.422;2022-09-28T12:34:16;15.57;67.00
68943;DHT22;60852;52.190;4.422;2022-09-28T12:37:00;15.53;67.22
68943;DHT22;60852;52.190;4.422;2022-09-28T12:45:10;15.54;66.98
68943;DHT22;60852;52.190;4.422;2022-09-28T12:50:39;15.71;66.85
68943;DHT22;60852;52.190;4.422;2022-09-28T12:53:16;15.75;67.02
68943;DHT22;60852;52.190;4.422;2022-09-28T12:56:02;15.83;67.38
68943;DHT22;60852;52.190;4.422;2022-09-28T12:59:07;15.81;65.98
68943;DHT22;60852;52.190;4.422;2022-09-28T13:07:24;15.84;66.11
68943;DHT22;60852;52.190;4.422;2022-09-28T13:10:32;15.77;65.80
68943;DHT22;60852;52.190;4.422;2022-09-28T13:18:20;15.55;68.22
68943;DHT22;60852;52.190;4.422;2022-09-28T13:23:33;15.53;67.26
68943;DHT22;60852;52.190;4.422;2022-09-28T13:26:21;15.36;67.68
68943;DHT22;60852;52.190;4.422;2022-09-28T13:28:51;15.16;70.43
68943;DHT22;60852;52.190;4.422;2022-09-28T13:31:25;15.02;69.62
68943;DHT22;60852;52.190;4.422;2022-09-28T13:33:58;14.89;69.76
68943;DHT22;60852;52.190;4.422;2022-09-28T13:36:34;14.89;71.03
68943;DHT22;60852;52.190;4.422;2022-09-28T13:39:01;14.93;71.64
68943;DHT22;60852;52.190;4.422;2022-09-28T13:41:33;15.00;72.31
68943;DHT22;60852;52.190;4.422;2022-09-28T13:49:29;14.60;67.87
68943;DHT22;60852;52.190;4.422;2022-09-28T13:52:21;14.51;66.23
68943;DHT22;60852;52.190;4.422;2022-09-28T13:55:02;14.48;65.11
68943;DHT22;60852;52.190;4.422;2022-09-28T13:57:43;14.41;64.08
68943;DHT22;60852;52.190;4.422;2022-09-28T14:06:02;14.36;66.74
68943;DHT22;60852;52.190;4.422;2022-09-28T14:08:36;14.52;67.62
68943;DHT22;60852;52.190;4.422;2022-09-28T14:14:22;14.82;66.94
68943;DHT22;60852;52.190;4.422;2022-09-28T14:19:41;15.00;68.41
68943;DHT22;60852;52.190;4.422;2022-09-28T14:22:32;15.07;68.08
68943;DHT22;60852;52.190;4.422;2022-09-28T14:25:24;15.07;66.53
68943;DHT22;60852;52.190;4.422;2022-09-28T14:30:25;15.15;65.89
68943;DHT22;60852;52.190;4.422;2022-09-28T14:32:55;15.16;66.85
68943;DHT22;60852;52.190;4.422;2022-09-28T14:38:25;15.15;66.67
68943;DHT22;60852;52.190;4.422;2022-09-28T14:48:55;14.91;67.97
68943;DHT22;60852;52.190;4.422;2022-09-28T14:56:18;14.99;68.27
68943;DHT22;60852;52.190;4.422;2022-09-28T14:58:48;15.02;69.46
68943;DHT22;60852;52.190;4.422;2022-09-28T15:01:19;15.00;69.50
68943;DHT22;60852;52.190;4.422;2022-09-28T15:03:50;14.93;69.81
68943;DHT22;60852;52.190;4.422;2022-09-28T15:06:16;14.98;69.49
68943;DHT22;60852;52.190;4.422;2022-09-28T15:08:45;15.03;70.03
68943;DHT22;60852;52.190;4.422;2022-09-28T15:11:15;15.03;68.17
68943;DHT22;60852;52.190;4.422;2022-09-28T15:13:42;14.96;68.25
68943;DHT22;60852;52.190;4.422;2022-09-28T15:16:11;14.99;69.27
68943;DHT22;60852;52.190;4.422;2022-09-28T15:21:34;15.22;68.52
68943;DHT22;60852;52.190;4.422;2022-09-28T15:24:00;15.27;68.69
68943;DHT22;60852;52.190;4.422;2022-09-28T15:26:31;15.30;68.34
68943;DHT22;60852;52.190;4.422;2022-09-28T15:28:58;15.30;68.35
68943;DHT22;60852;52.190;4.422;2022-09-28T15:31:33;15.13;66.56
68943;DHT22;60852;52.190;4.422;2022-09-28T15:33:59;15.09;67.12
68943;DHT22;60852;52.190;4.422;2022-09-28T15:36:44;15.12;67.00
68943;DHT22;60852;52.190;4.422;2022-09-28T15:39:19;15.16;67.16
68943;DHT22;60852;52.190;4.422;2022-09-28T15:41:49;15.09;66.13
68943;DHT22;60852;52.190;4.422;2022-09-28T15:46:43;15.06;67.31
68943;DHT22;60852;52.190;4.422;2022-09-28T15:49:24;14.99;67.80
68943;DHT22;60852;52.190;4.422;2022-09-28T15:51:53;14.95;67.49
68943;DHT22;60852;52.190;4.422;2022-09-28T15:54:25;14.86;67.33
68943;DHT22;60852;52.190;4.422;2022-09-28T16:02:21;14.55;68.95
68943;DHT22;60852;52.190;4.422;2022-09-28T16:04:56;14.44;69.32
68943;DHT22;60852;52.190;4.422;2022-09-28T16:12:45;14.28;70.71
68943;DHT22;60852;52.190;4.422;2022-09-28T16:17:51;14.38;69.02
68943;DHT22;60852;52.190;4.422;2022-09-28T16:20:25;14.45;69.48
68943;DHT22;60852;52.190;4.422;2022-09-28T16:22:55;14.55;69.84
68943;DHT22;60852;52.190;4.422;2022-09-28T16:25:24;14.64;70.34
68943;DHT22;60852;52.190;4.422;2022-09-28T16:27:53;14.60;69.79
68943;DHT22;60852;52.190;4.422;2022-09-28T16:30:25;14.58;71.80
68943;DHT22;60852;52.190;4.422;2022-09-28T16:38:07;14.36;73.91
68943;DHT22;60852;52.190;4.422;2022-09-28T16:40:37;14.27;74.34
68943;DHT22;60852;52.190;4.422;2022-09-28T16:43:07;14.20;74.67
68943;DHT22;60852;52.190;4.422;2022-09-28T16:45:33;14.14;73.93
68943;DHT22;60852;52.190;4.422;2022-09-28T16:48:00;14.10;75.63
68943;DHT22;60852;52.190;4.422;2022-09-28T16:50:27;14.02;75.82
68943;DHT22;60852;52.190;4.422;2022-09-28T16:53:10;13.93;75.75
68943;DHT22;60852;52.190;4.422;2022-09-28T16:55:57;13.90;76.46
68943;DHT22;60852;52.190;4.422;2022-09-28T16:58:23;13.97;77.04
68943;DHT22;60852;52.190;4.422;2022-09-28T17:00:50;14.00;76.66
68943;DHT22;60852;52.190;4.422;2022-09-28T17:03:17;14.02;76.54
68943;DHT22;60852;52.190;4.422;2022-09-28T17:05:45;14.03;77.31
68943;DHT22;60852;52.190;4.422;2022-09-28T17:08:13;14.05;77.54
68943;DHT22;60852;52.190;4.422;2022-09-28T17:10:51;14.10;77.52
68943;DHT22;60852;52.190;4.422;2022-09-28T17:13:22;14.14;77.32
68943;DHT22;60852;52.190;4.422;2022-09-28T17:15:58;14.17;77.36
68943;DHT22;60852;52.190;4.422;2022-09-28T17:18:25;13.97;75.95
68943;DHT22;60852;52.190;4.422;2022-09-28T17:20:52;13.68;74.65
68943;DHT22;60852;52.190;4.422;2022-09-28T17:23:20;13.29;71.87
68943;DHT22;60852;52.190;4.422;2022-09-28T17:25:47;13.15;72.70
68943;DHT22;60852;52.190;4.422;2022-09-28T17:28:18;13.06;73.66
68943;DHT22;60852;52.190;4.422;2022-09-28T17:30:45;13.00;74.45
68943;DHT22;60852;52.190;4.422;2022-09-28T17:33:11;12.80;73.80
68943;DHT22;60852;52.190;4.422;2022-09-28T17:35:38;12.64;74.71
68943;DHT22;60852;52.190;4.422;2022-09-28T17:38:03;12.53;75.46
68943;DHT22;60852;52.190;4.422;2022-09-28T17:40:29;12.52;75.71
68943;DHT22;60852;52.190;4.422;2022-09-28T17:42:57;12.52;76.93
68943;DHT22;60852;52.190;4.422;2022-09-28T17:45:25;12.57;77.76
68943;DHT22;60852;52.190;4.422;2022-09-28T17:47:54;12.56;77.19
68943;DHT22;60852;52.190;4.422;2022-09-28T17:52:48;12.61;77.52
68943;DHT22;60852;52.190;4.422;2022-09-28T17:55:20;12.63;77.05
68943;DHT22;60852;52.190;4.422;2022-09-28T17:57:46;12.73;77.96
68943;DHT22;60852;52.190;4.422;2022-09-28T18:00:12;12.86;78.25
68943;DHT22;60852;52.190;4.422;2022-09-28T18:02:39;12.91;77.30
68943;DHT22;60852;52.190;4.422;2022-09-28T18:05:04;12.83;76.67
68943;DHT22;60852;52.190;4.422;2022-09-28T18:07:30;12.79;77.02
68943;DHT22;60852;52.190;4.422;2022-09-28T18:09:59;12.79;77.59
68943;DHT22;60852;52.190;4.422;2022-09-28T18:12:25;12.87;78.28
68943;DHT22;60852;52.190;4.422;2022-09-28T18:14:52;13.01;78.65
68943;DHT22;60852;52.190;4.422;2022-09-28T18:17:17;13.06;78.02
68943;DHT22;60852;52.190;4.422;2022-09-28T18:19:43;13.07;78.67
68943;DHT22;60852;52.190;4.422;2022-09-28T18:22:08;13.07;78.80
68943;DHT22;60852;52.190;4.422;2022-09-28T18:24:34;13.06;78.91
68943;DHT22;60852;52.190;4.422;2022-09-28T18:26:59;12.97;78.63
68943;DHT22;60852;52.190;4.422;2022-09-28T18:29:25;12.93;78.17
68943;DHT22;60852;52.190;4.422;2022-09-28T18:31:50;12.91;78.07
68943;DHT22;60852;52.190;4.422;2022-09-28T18:34:16;12.91;77.23
68943;DHT22;60852;52.190;4.422;2022-09-28T18:36:42;12.86;77.34
68943;DHT22;60852;52.190;4.422;2022-09-28T18:39:07;12.77;77.08
68943;DHT22;60852;52.190;4.422;2022-09-28T18:41:33;12.73;77.23
68943;DHT22;60852;52.190;4.422;2022-09-28T18:43:59;12.76;77.38
68943;DHT22;60852;52.190;4.422;2022-09-28T18:46:29;12.80;78.01
68943;DHT22;60852;52.190;4.422;2022-09-28T18:48:55;12.72;76.90
68943;DHT22;60852;52.190;4.422;2022-09-28T18:51:21;12.66;77.97